Latest Weather Observations for Terrey Hills

IDN60801

Issued at 4:35 pm EDT Thursday 27 November 2014 (issued every 30 minutes, with the page automatically refreshed every 10 minutes)

About weather observations | Map of weather stations | Latest weather observations for NSW | Other Formats
Station Details ID: 066059 Name: TERREY HILLS AWS Lat: -33.69 Lon: 151.23 Height: 199.0 m
Data from the previous 72 hours. | See also: Recent months at Terrey Hills
Date/Time
EDT
Temp
°C
App
Temp
°C
Dew
Point
Rel
Hum
%
Delta-T
°C
Wind Press
QNH
hPa
Press
MSL
hPa
Rain
since 9 am
mm
Dir
 
Spd
km/h
Gust
km/h
Spd
kts
Gust
kts
27/04:30pm 17.4 16.6 13.9 80 2.0 SE 11 20 6 11 - - 1.8
27/04:00pm 17.3 16.5 14.0 81 1.9 SE 11 17 6 9 - - 1.8
27/03:30pm 17.5 17.2 14.4 82 1.8 ESE 9 15 5 8 - - 1.8
27/03:00pm 16.9 16.7 14.7 87 1.3 SE 9 19 5 10 - - 1.8
27/02:30pm 17.4 17.8 15.2 87 1.3 SE 7 13 4 7 - - 1.8
27/02:00pm 16.5 16.7 15.7 95 0.5 SSE 9 19 5 10 - - 1.8
27/01:30pm 16.1 15.6 15.0 93 0.6 SSE 11 22 6 12 - - 1.8
27/01:00pm 16.6 16.7 15.6 94 0.6 SE 9 20 5 11 - - 1.8
27/12:30pm 16.3 16.5 15.8 97 0.3 SE 9 15 5 8 - - 1.8
27/12:00pm 16.3 16.1 15.8 97 0.3 SSE 11 19 6 10 - - 1.8
27/11:30am 16.4 16.3 15.9 97 0.3 SE 11 19 6 10 - - 1.6
27/11:00am 16.6 17.3 16.0 96 0.4 SSE 7 13 4 7 - - 1.0
27/10:30am 16.5 17.2 16.0 97 0.3 SSE 7 13 4 7 - - 1.0
27/10:00am 16.3 16.5 15.8 97 0.3 SE 9 15 5 8 - - 0.8
27/09:30am 16.2 15.9 15.4 95 0.5 SSE 11 24 6 13 - - 0.8
27/09:00am 16.3 16.3 15.3 94 0.6 S 9 15 5 8 - - 3.0
27/08:30am 16.4 16.8 15.4 94 0.6 SSE 7 17 4 9 - - 2.0
27/08:00am 16.6 16.6 15.1 91 0.9 S 9 17 5 9 - - 1.2
27/07:30am 18.0 17.6 15.3 84 1.6 SE 11 22 6 12 - - 0.0
27/07:00am 17.9 16.9 15.5 86 1.4 SE 15 26 8 14 - - 0.0
27/06:30am 17.6 16.8 16.1 91 0.9 SE 15 26 8 14 - - 0.0
27/06:00am 17.4 16.4 15.6 89 1.1 ESE 15 24 8 13 - - 0.0
27/05:30am 17.5 17.2 16.5 94 0.6 ESE 13 26 7 14 - - 0.0
27/05:00am 17.7 18.4 17.1 96 0.4 SE 9 19 5 10 - - 0.0
27/04:30am 17.7 19.4 17.1 96 0.4 S 4 6 2 3 - - 0.0
27/04:00am 17.7 19.4 17.1 96 0.4 SSW 4 7 2 4 - - 0.0
27/03:30am 17.9 20.0 17.1 95 0.5 SSE 2 7 1 4 - - 0.0
27/03:00am 18.1 20.2 17.3 95 0.5 S 2 7 1 4 - - 0.0
27/02:30am 18.1 19.8 17.1 94 0.6 SSE 4 6 2 3 - - 0.0
27/02:00am 18.2 20.4 17.4 95 0.5 SSE 2 4 1 2 - - 0.0
27/01:30am 18.4 20.2 17.4 94 0.6 SSE 4 9 2 5 - - 0.0
27/01:00am 18.6 20.1 17.6 94 0.6 SSE 6 9 3 5 - - 0.0
27/12:30am 18.5 20.3 17.5 94 0.6 SSE 4 7 2 4 - - 0.0
27/12:00am 18.5 19.7 17.3 93 0.7 ESE 7 11 4 6 - - 0.0
 
Date/Time
EDT
Temp
°C
App
Temp
°C
Dew
Point
Rel
Hum
%
Delta-T
°C
Wind Press
QNH
hPa
Press
MSL
hPa
Rain
since 9 am
mm
Dir
 
Spd
km/h
Gust
km/h
Spd
kts
Gust
kts
26/11:30pm 18.6 19.4 17.3 92 0.8 E 9 13 5 7 - - 0.0
26/11:00pm 19.0 19.8 17.3 90 1.0 E 9 15 5 8 - - 0.0
26/10:30pm 19.4 20.3 17.5 89 1.2 ESE 9 13 5 7 - - 0.0
26/10:00pm 19.4 20.2 17.4 88 1.2 E 9 17 5 9 - - 0.0
26/09:30pm 19.5 20.4 17.5 88 1.2 E 9 13 5 7 - - 0.0
26/09:00pm 19.3 20.0 17.1 87 1.3 E 9 17 5 9 - - 0.0
26/08:30pm 19.3 19.6 16.9 86 1.5 ENE 11 19 6 10 - - 0.0
26/08:00pm 19.6 19.4 16.8 84 1.7 ENE 13 24 7 13 - - 0.0
26/07:30pm 19.8 19.2 16.6 82 1.9 ENE 15 28 8 15 - - 0.0
26/07:00pm 20.0 19.3 16.4 80 2.2 ENE 15 26 8 14 - - 0.0
26/06:30pm 20.6 20.4 16.8 79 2.3 NE 13 28 7 15 - - 0.0
26/06:00pm 20.6 20.2 16.2 76 2.7 ENE 13 32 7 17 - - 0.0
26/05:30pm 21.7 21.1 16.6 73 3.1 NE 15 28 8 15 - - 0.0
26/05:00pm 21.0 20.2 16.2 74 2.9 ENE 15 32 8 17 - - 0.0
26/04:30pm 22.3 22.1 16.6 70 3.5 NE 13 22 7 12 - - 0.0
26/04:00pm 21.8 22.2 16.3 71 3.4 NE 9 22 5 12 - - 0.0
26/03:30pm 21.9 21.2 16.4 71 3.4 NE 15 28 8 15 - - 0.0
26/03:00pm 21.6 20.4 16.1 71 3.3 NE 17 30 9 16 - - 0.0
26/02:30pm 21.8 20.7 16.3 71 3.4 NE 17 28 9 15 - - 0.0
26/02:00pm 20.5 19.6 15.9 75 2.8 ENE 15 24 8 13 - - 0.0
26/01:30pm 20.1 20.2 15.5 75 2.7 NE 9 17 5 9 - - 0.0
26/01:00pm 20.2 19.9 15.4 74 2.9 NE 11 22 6 12 - - 0.0
26/12:30pm 21.0 21.4 16.2 74 2.9 ENE 9 17 5 9 - - 0.0
26/12:00pm 19.8 20.3 15.0 74 2.8 ENE 6 13 3 7 - - 0.0
26/11:30am 19.7 19.8 14.5 72 3.0 NNE 7 15 4 8 - - 0.0
26/11:00am 19.5 19.5 14.3 72 3.0 NNE 7 15 4 8 - - 0.0
26/10:30am 19.7 19.5 14.7 73 2.9 ENE 9 19 5 10 - - 0.0
26/10:00am 19.3 18.5 14.1 72 3.0 ENE 11 20 6 11 - - 0.0
26/09:30am 19.4 18.9 13.8 70 3.2 NE 9 17 5 9 - - 0.0
26/09:00am 19.9 19.8 13.8 68 3.5 NE 7 15 4 8 - - 0.0
26/08:30am 19.8 19.9 14.4 71 3.2 NE 7 19 4 10 - - 0.0
26/08:00am 19.1 18.9 13.7 71 3.1 NE 7 17 4 9 - - 0.0
26/07:30am 18.7 18.3 14.2 75 2.6 ENE 9 17 5 9 - - 0.0
26/07:00am 17.7 17.6 13.8 78 2.2 ENE 7 11 4 6 - - 0.0
26/06:30am 16.9 16.6 13.4 80 2.0 NE 7 11 4 6 - - 0.0
26/06:00am 16.2 15.5 13.3 83 1.6 ENE 9 15 5 8 - - 0.0
26/05:30am 16.2 15.5 13.3 83 1.6 ENE 9 13 5 7 - - 0.0
26/05:00am 16.6 16.2 13.1 80 2.0 ENE 7 13 4 7 - - 0.0
26/04:30am 17.1 16.2 13.8 81 1.9 ENE 11 17 6 9 - - 0.0
26/04:00am 16.9 16.6 13.4 80 2.0 ENE 7 13 4 7 - - 0.0
26/03:30am 17.2 17.0 13.7 80 2.0 ENE 7 13 4 7 - - 0.0
26/03:00am 17.5 15.8 13.6 78 2.2 E 15 20 8 11 - - 0.0
26/02:30am 17.4 16.9 13.7 79 2.1 E 9 15 5 8 - - 0.0
26/02:00am 17.4 17.2 13.7 79 2.1 E 7 15 4 8 - - 0.0
26/01:30am 17.5 16.9 13.6 78 2.2 E 9 15 5 8 - - 0.0
26/01:00am 17.6 17.1 13.7 78 2.2 E 9 13 5 7 - - 0.0
26/12:30am 17.7 17.2 13.8 78 2.2 E 9 13 5 7 - - 0.0
26/12:00am 17.7 17.6 13.8 78 2.2 E 7 11 4 6 - - 0.0
 
Date/Time
EDT
Temp
°C
App
Temp
°C
Dew
Point
Rel
Hum
%
Delta-T
°C
Wind Press
QNH
hPa
Press
MSL
hPa
Rain
since 9 am
mm
Dir
 
Spd
km/h
Gust
km/h
Spd
kts
Gust
kts
25/11:30pm 17.8 17.3 13.7 77 2.3 E 9 17 5 9 - - 0.0
25/11:00pm 17.8 17.3 13.9 78 2.2 E 9 13 5 7 - - 0.0
25/10:30pm 17.9 18.0 14.0 78 2.2 E 6 11 3 6 - - 0.0
25/10:00pm 17.9 18.1 14.2 79 2.1 E 6 9 3 5 - - 0.0
25/09:30pm 17.8 18.0 14.1 79 2.1 E 6 9 3 5 - - 0.0
25/09:00pm 17.9 17.8 14.0 78 2.2 E 7 13 4 7 - - 0.0
25/08:30pm 17.7 17.6 13.8 78 2.2 E 7 15 4 8 - - 0.0
25/08:00pm 17.7 17.2 13.8 78 2.2 ESE 9 19 5 10 - - 0.0
25/07:30pm 17.9 16.2 13.6 76 2.5 E 15 22 8 12 - - 0.0
25/07:00pm 18.4 17.6 14.1 76 2.5 E 11 20 6 11 - - 0.0
25/06:30pm 18.4 16.0 13.9 75 2.6 E 19 26 10 14 - - 0.0
25/06:00pm 18.6 16.1 13.5 72 2.9 E 19 26 10 14 - - 0.0
25/05:30pm 18.7 16.7 14.0 74 2.7 E 17 28 9 15 - - 0.0
25/05:00pm 19.6 18.2 14.4 72 3.0 E 15 22 8 12 - - 0.0
25/04:30pm 18.9 16.8 13.7 72 3.0 ESE 17 26 9 14 - - 0.0
25/04:00pm 19.2 17.3 14.2 73 2.9 ESE 17 26 9 14 - - 0.0
25/03:30pm 20.5 18.8 14.8 70 3.4 E 17 28 9 15 - - 0.0
25/03:00pm 20.1 18.5 14.9 72 3.1 E 17 28 9 15 - - 0.0
25/02:30pm 20.2 19.0 15.0 72 3.1 ESE 15 26 8 14 - - 0.0
25/02:00pm 20.0 18.8 15.0 73 3.0 ESE 15 26 8 14 - - 0.0
25/01:30pm 20.5 20.3 14.8 70 3.4 SSE 9 17 5 9 - - 0.0
25/01:00pm 20.1 18.9 15.1 73 3.0 SE 15 24 8 13 - - 0.0
25/12:30pm 20.1 18.9 15.1 73 3.0 SE 15 24 8 13 - - 0.0
25/12:00pm 21.3 20.0 14.9 67 3.8 SSE 15 24 8 13 - - 0.0
25/11:30am 21.0 19.8 15.1 69 3.5 SSE 15 26 8 14 - - 0.0
25/11:00am 23.1 19.0 6.0 33 8.8 SW 17 26 9 14 - - 0.0
25/10:30am 22.7 18.2 4.2 30 9.1 SW 17 30 9 16 - - 0.0
25/10:00am 22.8 20.6 14.4 59 5.0 SW 19 33 10 18 - - 0.0
25/09:30am 22.5 23.6 18.1 76 2.8 SW 9 15 5 8 - - 0.0
25/09:00am 22.4 24.1 18.6 79 2.4 W 7 15 4 8 - - 5.2
25/08:30am 22.6 24.5 19.0 80 2.3 W 7 13 4 7 - - 5.2
25/08:00am 22.5 24.4 18.9 80 2.3 W 7 15 4 8 - - 5.2
25/07:30am 21.5 23.4 18.9 85 1.7 WNW 7 15 4 8 - - 5.2
25/07:00am 21.2 23.1 18.9 87 1.5 WNW 7 15 4 8 - - 5.2
25/06:30am 21.0 22.9 18.9 88 1.3 WNW 7 13 4 7 - - 5.2
25/06:00am 21.3 22.2 18.5 84 1.8 WNW 11 24 6 13 - - 5.2
25/05:30am 21.1 21.8 18.9 87 1.4 NW 13 26 7 14 - - 5.2
25/05:00am 21.1 21.9 19.0 88 1.3 NW 13 24 7 13 - - 5.0
25/04:30am 21.1 22.0 19.2 89 1.2 NW 13 22 7 12 - - 5.0
25/04:00am 21.2 22.5 19.3 89 1.2 NW 11 24 6 13 - - 4.8
25/03:30am 21.2 21.7 19.3 89 1.2 NNW 15 30 8 16 - - 4.8
25/03:00am 21.0 22.0 19.5 91 1.0 NNW 13 20 7 11 - - 4.8
25/02:30am 20.8 22.2 19.6 93 0.8 NW 11 24 6 13 - - 4.8
25/02:00am 21.3 22.6 20.1 93 0.8 NW 13 24 7 13 - - 4.6
25/01:30am 21.8 23.0 20.6 93 0.8 NNW 15 24 8 13 - - 4.2
25/01:00am 22.3 24.1 21.1 93 0.8 NNW 13 26 7 14 - - 3.6
25/12:30am 22.4 24.4 21.6 95 0.5 NNW 13 26 7 14 - - 3.2
25/12:00am 22.0 24.9 21.8 99 0.1 NW 9 20 5 11 - - 3.2
 
Date/Time
EDT
Temp
°C
App
Temp
°C
Dew
Point
Rel
Hum
%
Delta-T
°C
Wind Press
QNH
hPa
Press
MSL
hPa
Rain
since 9 am
mm
Dir
 
Spd
km/h
Gust
km/h
Spd
kts
Gust
kts
24/11:30pm 21.5 24.5 21.3 99 0.1 NW 7 17 4 9 - - 3.2
24/11:00pm 20.9 23.6 20.7 99 0.1 WNW 7 13 4 7 - - 3.0
24/10:30pm 20.9 24.2 20.7 99 0.1 NW 4 6 2 3 - - 3.0
24/10:00pm 20.7 23.9 20.4 98 0.2 NW 4 7 2 4 - - 3.0
24/09:30pm 20.7 24.2 20.4 98 0.2 WNW 2 4 1 2 - - 3.0
24/09:00pm 20.6 24.1 20.3 98 0.2 NNE 2 7 1 4 - - 3.0
24/08:30pm 20.6 23.7 20.3 98 0.2 WSW 4 6 2 3 - - 3.0
24/08:00pm 20.6 24.1 20.3 98 0.2 WSW 2 6 1 3 - - 3.0
24/07:30pm 20.8 23.6 20.5 98 0.2 N 6 9 3 5 - - 3.0
24/07:00pm 20.6 23.3 20.3 98 0.2 S 6 9 3 5 - - 2.8
24/06:30pm 20.8 23.0 20.3 97 0.3 E 9 15 5 8 - - 2.8
24/06:00pm 21.3 22.8 19.8 91 1.0 NE 11 17 6 9 - - 2.0
24/05:30pm 22.2 23.1 19.2 83 1.9 SE 13 20 7 11 - - 0.0
24/05:00pm 22.6 24.1 19.8 84 1.8 ESE 11 17 6 9 - - 0.0

Other Formats:

Comma delimited format used in spreadsheet applications
http://www.bom.gov.au/fwo/IDN60801/IDN60801.94759.axf

JavaScript Object Notation format (JSON) in row-major order
http://www.bom.gov.au/fwo/IDN60801/IDN60801.94759.json